createdAt,value
2023-05-01T00:00:19.964Z,87.09
2023-05-01T00:01:19.992Z,86.99
2023-05-01T00:02:20.053Z,86.80
2023-05-01T00:03:20.175Z,86.90
2023-05-01T00:04:20.178Z,86.71
2023-05-01T00:05:20.080Z,87.04
2023-05-01T00:06:20.127Z,86.71
2023-05-01T00:07:20.107Z,86.61
2023-05-01T00:08:20.142Z,86.61
2023-05-01T00:09:20.157Z,86.52
2023-05-01T00:10:20.207Z,86.33
2023-05-01T00:11:20.192Z,85.95
2023-05-01T00:12:20.211Z,86.71
2023-05-01T00:13:20.234Z,86.52
2023-05-01T00:14:20.251Z,86.71
2023-05-01T00:15:20.271Z,86.43
2023-05-01T00:16:20.333Z,86.43
2023-05-01T00:17:20.312Z,86.52
2023-05-01T00:18:20.375Z,86.52
2023-05-01T00:19:20.355Z,86.52
2023-05-01T00:20:20.377Z,86.61
2023-05-01T00:21:20.395Z,86.99
2023-05-01T00:22:20.425Z,87.09
2023-05-01T00:23:20.436Z,86.80
2023-05-01T00:24:20.478Z,86.99
2023-05-01T00:25:20.479Z,86.71
2023-05-01T00:26:20.535Z,87.19
2023-05-01T00:27:20.524Z,86.90
2023-05-01T00:28:20.542Z,87.19
2023-05-01T00:29:20.568Z,87.09
2023-05-01T00:30:20.588Z,87.09
2023-05-01T00:31:20.610Z,86.99
2023-05-01T00:32:20.731Z,87.57
2023-05-01T00:33:20.658Z,87.76
2023-05-01T00:34:20.668Z,87.76
2023-05-01T00:35:20.714Z,87.57
2023-05-01T00:36:20.715Z,87.76
2023-05-01T00:37:20.734Z,87.66
2023-05-01T00:38:20.768Z,87.57
2023-05-01T00:39:20.803Z,87.57
2023-05-01T00:40:20.811Z,87.66
2023-05-01T00:41:20.825Z,87.57
2023-05-01T00:42:20.845Z,87.47
2023-05-01T00:43:20.876Z,87.47
2023-05-01T00:44:20.887Z,87.66
2023-05-01T00:45:20.901Z,87.47
2023-05-01T00:46:20.937Z,87.66
2023-05-01T00:47:20.972Z,87.57
2023-05-01T00:48:20.981Z,87.76
2023-05-01T00:49:20.991Z,87.76
2023-05-01T00:50:21.003Z,87.76
2023-05-01T00:51:21.071Z,87.66
2023-05-01T00:52:21.057Z,87.95
2023-05-01T00:53:21.066Z,87.19
2023-05-01T00:54:21.106Z,86.90
2023-05-01T00:55:21.110Z,86.80
2023-05-01T00:56:21.127Z,87.28
2023-05-01T00:57:21.149Z,87.81
2023-05-01T00:58:21.189Z,87.71
2023-05-01T00:59:21.210Z,87.24
2023-05-01T01:00:21.210Z,87.71
2023-05-01T01:01:21.302Z,87.85
2023-05-01T01:02:21.258Z,88.28
2023-05-01T01:03:21.271Z,88.13
2023-05-01T01:04:21.335Z,88.28
2023-05-01T01:05:21.315Z,88.47
2023-05-01T01:06:21.365Z,88.57
2023-05-01T01:07:21.369Z,88.57
2023-05-01T01:08:21.379Z,88.52
2023-05-01T01:09:21.397Z,88.28
2023-05-01T01:10:21.423Z,88.67
2023-05-01T01:11:21.444Z,88.67
2023-05-01T01:12:21.479Z,88.76
2023-05-01T01:13:21.475Z,88.67
2023-05-01T01:14:21.507Z,88.47
2023-05-01T01:15:21.527Z,88.47
2023-05-01T01:16:21.557Z,88.00
2023-05-01T01:17:21.558Z,88.28
2023-05-01T01:18:21.588Z,88.19
2023-05-01T01:19:21.600Z,87.62
2023-05-01T01:20:21.622Z,87.52
2023-05-01T01:21:21.641Z,87.90
2023-05-01T01:22:21.717Z,86.99
2023-05-01T01:23:21.683Z,86.95
2023-05-01T01:24:21.704Z,87.14
2023-05-01T01:25:21.724Z,86.76
2023-05-01T01:26:21.744Z,86.38
2023-05-01T01:27:21.765Z,86.47
2023-05-01T01:28:21.810Z,86.47
2023-05-01T01:29:21.816Z,86.38
2023-05-01T01:30:21.830Z,86.47
2023-05-01T01:31:21.890Z,86.29
2023-05-01T01:32:21.930Z,86.29
2023-05-01T01:33:21.889Z,85.81
2023-05-01T01:34:21.906Z,86.14
2023-05-01T01:35:21.936Z,86.10
2023-05-01T01:36:21.957Z,86.10
2023-05-01T01:37:21.993Z,85.81
2023-05-01T01:38:22.003Z,85.91
2023-05-01T01:39:22.012Z,86.19
2023-05-01T01:40:22.037Z,86.10
2023-05-01T01:41:22.057Z,86.10
2023-05-01T01:42:22.075Z,86.10
2023-05-01T01:43:22.102Z,86.10
2023-05-01T01:44:22.114Z,86.29
2023-05-01T01:45:22.155Z,86.00
2023-05-01T01:46:22.182Z,86.57
2023-05-01T01:47:22.195Z,85.91
2023-05-01T01:48:22.202Z,86.38
2023-05-01T01:49:22.221Z,85.91
2023-05-01T01:50:22.239Z,86.86
2023-05-01T01:51:22.263Z,86.19
2023-05-01T01:52:22.311Z,85.81
2023-05-01T01:53:22.299Z,86.10
2023-05-01T01:54:22.322Z,86.38
2023-05-01T01:55:22.345Z,86.19
2023-05-01T01:56:22.361Z,85.72
2023-05-01T01:57:22.385Z,85.72
2023-05-01T01:58:22.412Z,85.05
2023-05-01T01:59:22.425Z,85.15
2023-05-01T02:00:22.471Z,85.53
2023-05-01T02:01:22.487Z,85.24
2023-05-01T02:02:22.574Z,84.86
2023-05-01T02:03:22.619Z,85.05
2023-05-01T02:04:22.522Z,84.29
2023-05-01T02:05:22.545Z,84.77
2023-05-01T02:06:22.614Z,83.86
2023-05-01T02:07:22.589Z,83.76
2023-05-01T02:08:22.611Z,83.58
2023-05-01T02:09:22.672Z,83.58
2023-05-01T02:10:22.658Z,83.67
2023-05-01T02:11:22.676Z,82.91
2023-05-01T02:12:22.700Z,82.81
2023-05-01T02:13:22.713Z,83.10
2023-05-01T02:14:22.732Z,82.81
2023-05-01T02:15:22.753Z,82.81
2023-05-01T02:16:22.802Z,82.62
2023-05-01T02:17:22.816Z,82.81
2023-05-01T02:18:22.822Z,82.91
2023-05-01T02:19:22.834Z,82.81
2023-05-01T02:20:22.853Z,83.10
2023-05-01T02:21:22.914Z,82.71
2023-05-01T02:22:22.897Z,82.43
2023-05-01T02:23:22.915Z,82.15
2023-05-01T02:24:22.938Z,82.15
2023-05-01T02:25:22.960Z,81.96
2023-05-01T02:26:23.084Z,81.96
2023-05-01T02:27:23.004Z,83.15
2023-05-01T02:28:23.022Z,82.77
2023-05-01T02:29:23.053Z,82.77
2023-05-01T02:30:23.056Z,82.77
2023-05-01T02:31:23.125Z,82.68
2023-05-01T02:32:23.141Z,82.87
2023-05-01T02:33:23.118Z,82.68
2023-05-01T02:34:23.141Z,82.39
2023-05-01T02:35:23.167Z,82.68
2023-05-01T02:36:23.188Z,82.68
2023-05-01T02:37:23.208Z,82.68
2023-05-01T02:38:23.224Z,82.87
2023-05-01T02:39:23.246Z,82.77
2023-05-01T02:40:23.271Z,83.06
2023-05-01T02:41:23.287Z,83.25
2023-05-01T02:42:23.308Z,83.06
2023-05-01T02:43:23.326Z,82.96
2023-05-01T02:44:23.358Z,82.96
2023-05-01T02:45:23.368Z,82.77
2023-05-01T02:46:23.519Z,82.39
2023-05-01T02:47:23.518Z,82.10
2023-05-01T02:48:23.437Z,82.10
2023-05-01T02:49:23.452Z,82.10
2023-05-01T02:50:23.489Z,81.77
2023-05-01T02:51:23.498Z,82.49
2023-05-01T02:52:23.512Z,82.20
2023-05-01T02:53:23.608Z,82.43
2023-05-01T02:54:23.554Z,82.01
2023-05-01T02:55:23.592Z,81.63
2023-05-01T02:56:23.592Z,81.63
2023-05-01T02:57:23.616Z,81.44
2023-05-01T02:58:23.673Z,81.54
2023-05-01T02:59:23.661Z,80.96
2023-05-01T03:00:23.678Z,80.96
2023-05-01T03:01:23.718Z,80.77
2023-05-01T03:02:23.723Z,80.96
2023-05-01T03:03:23.780Z,81.06
2023-05-01T03:04:23.828Z,80.91
2023-05-01T03:05:23.796Z,80.96
2023-05-01T03:06:23.868Z,81.16
2023-05-01T03:07:23.830Z,80.96
2023-05-01T03:08:23.837Z,81.16
2023-05-01T03:09:23.871Z,81.01
2023-05-01T03:10:23.891Z,80.72
2023-05-01T03:11:23.898Z,80.58
2023-05-01T03:12:23.919Z,80.72
2023-05-01T03:13:23.955Z,80.77
2023-05-01T03:14:23.961Z,80.72
2023-05-01T03:15:23.981Z,80.40
2023-05-01T03:16:24.055Z,80.15
2023-05-01T03:17:24.082Z,80.63
2023-05-01T03:18:24.232Z,80.49
2023-05-01T03:19:24.062Z,80.11
2023-05-01T03:20:24.866Z,80.34
2023-05-01T03:21:24.163Z,80.30
2023-05-01T03:22:24.130Z,80.11
2023-05-01T03:23:24.148Z,80.21
2023-05-01T03:24:24.164Z,80.53
2023-05-01T03:25:24.187Z,80.34
2023-05-01T03:26:24.206Z,79.86
2023-05-01T03:27:24.225Z,79.58
2023-05-01T03:28:24.247Z,79.77
2023-05-01T03:29:24.277Z,79.58
2023-05-01T03:30:24.293Z,79.86
2023-05-01T03:31:24.372Z,79.68
2023-05-01T03:32:24.394Z,79.86
2023-05-01T03:33:24.343Z,79.68
2023-05-01T03:34:24.363Z,79.68
2023-05-01T03:35:24.435Z,79.58
2023-05-01T03:36:24.401Z,79.30
2023-05-01T03:37:24.456Z,79.30
2023-05-01T03:38:24.449Z,79.30
2023-05-01T03:39:24.477Z,79.20
2023-05-01T03:40:24.488Z,79.49
2023-05-01T03:41:24.523Z,79.49
2023-05-01T03:42:24.549Z,79.77
2023-05-01T03:43:24.552Z,78.72
2023-05-01T03:44:24.566Z,78.82
2023-05-01T03:45:24.589Z,78.72
2023-05-01T03:46:24.691Z,78.53
2023-05-01T03:47:24.664Z,78.53
2023-05-01T03:48:24.657Z,78.53
2023-05-01T03:49:24.664Z,78.63
2023-05-01T03:50:24.696Z,79.01
2023-05-01T03:51:24.757Z,78.82
2023-05-01T03:52:24.743Z,78.91
2023-05-01T03:53:24.756Z,78.72
2023-05-01T03:54:24.769Z,78.72
2023-05-01T03:55:24.802Z,78.91
2023-05-01T03:56:24.819Z,78.72
2023-05-01T03:57:24.852Z,78.63
2023-05-01T03:58:24.855Z,78.91
2023-05-01T03:59:24.872Z,78.53
2023-05-01T04:00:24.894Z,78.72
2023-05-01T04:01:24.921Z,78.53
2023-05-01T04:02:25.062Z,78.63
2023-05-01T04:03:25.007Z,78.34
2023-05-01T04:04:25.043Z,77.87
2023-05-01T04:05:25.003Z,78.16
2023-05-01T04:06:25.065Z,78.25
2023-05-01T04:07:25.051Z,78.34
2023-05-01T04:08:25.058Z,78.16
2023-05-01T04:09:25.110Z,78.34
2023-05-01T04:10:25.108Z,78.25
2023-05-01T04:11:25.137Z,78.16
2023-05-01T04:12:25.142Z,78.72
2023-05-01T04:13:25.168Z,78.34
2023-05-01T04:14:25.187Z,78.63
2023-05-01T04:15:25.211Z,78.72
2023-05-01T04:16:25.318Z,79.01
2023-05-01T04:17:25.245Z,78.63
2023-05-01T04:18:25.267Z,78.72
2023-05-01T04:19:25.285Z,78.63
2023-05-01T04:20:25.309Z,78.53
2023-05-01T04:21:25.330Z,78.53
2023-05-01T04:22:25.358Z,78.72
2023-05-01T04:23:25.377Z,78.63
2023-05-01T04:24:25.390Z,78.44
2023-05-01T04:25:25.427Z,78.53
2023-05-01T04:26:25.440Z,78.63
2023-05-01T04:27:25.454Z,78.44
2023-05-01T04:28:25.495Z,78.57
2023-05-01T04:29:25.490Z,78.67
2023-05-01T04:30:25.508Z,78.48
2023-05-01T04:31:25.562Z,78.67
2023-05-01T04:32:25.613Z,78.29
2023-05-01T04:33:25.579Z,78.38
2023-05-01T04:34:25.593Z,78.19
2023-05-01T04:35:25.621Z,78.57
2023-05-01T04:36:25.654Z,78.38
2023-05-01T04:37:25.656Z,78.19
2023-05-01T04:38:25.674Z,78.57
2023-05-01T04:39:25.696Z,78.19
2023-05-01T04:40:25.717Z,77.91
2023-05-01T04:41:25.738Z,77.91
2023-05-01T04:42:25.757Z,78.19
2023-05-01T04:43:25.777Z,77.62
2023-05-01T04:44:25.802Z,77.53
2023-05-01T04:45:25.823Z,77.53
2023-05-01T04:46:25.888Z,78.14
2023-05-01T04:47:25.874Z,77.09
2023-05-01T04:48:25.883Z,77.00
2023-05-01T04:49:25.907Z,76.90
2023-05-01T04:50:25.929Z,77.13
2023-05-01T04:51:25.950Z,76.84
2023-05-01T04:52:25.968Z,76.65
2023-05-01T04:53:25.988Z,76.40
2023-05-01T04:54:26.010Z,75.74
2023-05-01T04:55:26.035Z,75.01
2023-05-01T04:56:26.065Z,74.73
2023-05-01T04:57:26.076Z,73.72
2023-05-01T04:58:26.103Z,72.76
2023-05-01T04:59:26.130Z,72.42
2023-05-01T05:00:26.140Z,71.94
2023-05-01T05:01:26.230Z,70.51
2023-05-01T05:02:26.257Z,69.93
2023-05-01T05:03:26.303Z,68.79
2023-05-01T05:04:26.233Z,68.06
2023-05-01T05:05:26.252Z,67.58
2023-05-01T05:06:26.403Z,66.72
2023-05-01T05:07:26.299Z,66.25
2023-05-01T05:08:26.324Z,66.35
2023-05-01T05:09:26.349Z,66.44
2023-05-01T05:10:26.394Z,65.96
2023-05-01T05:11:26.417Z,65.10
2023-05-01T05:12:26.419Z,65.01
2023-05-01T05:13:26.439Z,65.20
2023-05-01T05:14:26.457Z,66.25
2023-05-01T05:15:26.483Z,66.35
2023-05-01T05:16:26.532Z,65.42
2023-05-01T05:17:26.527Z,64.94
2023-05-01T05:18:26.551Z,64.75
2023-05-01T05:19:26.575Z,64.85
2023-05-01T05:20:26.615Z,64.47
2023-05-01T05:21:26.624Z,64.94
2023-05-01T05:22:26.650Z,64.94
2023-05-01T05:23:26.666Z,64.34
2023-05-01T05:24:26.726Z,63.96
2023-05-01T05:25:26.712Z,64.15
2023-05-01T05:26:26.737Z,64.91
2023-05-01T05:27:26.767Z,64.81
2023-05-01T05:28:26.782Z,65.20
2023-05-01T05:29:26.815Z,65.20
2023-05-01T05:30:26.834Z,64.34
2023-05-01T05:31:26.878Z,65.20
2023-05-01T05:32:27.005Z,64.91
2023-05-01T05:33:26.902Z,65.01
2023-05-01T05:34:26.922Z,65.30
2023-05-01T05:35:26.946Z,65.58
2023-05-01T05:36:26.974Z,65.48
2023-05-01T05:37:26.993Z,65.30
2023-05-01T05:38:27.021Z,65.77
2023-05-01T05:39:27.056Z,65.20
2023-05-01T05:40:27.061Z,65.39
2023-05-01T05:41:27.098Z,65.20
2023-05-01T05:42:27.124Z,65.30
2023-05-01T05:43:28.109Z,64.53
2023-05-01T05:44:27.155Z,64.25
2023-05-01T05:45:27.180Z,64.25
2023-05-01T05:46:27.313Z,64.15
2023-05-01T05:47:27.227Z,64.43
2023-05-01T05:48:27.313Z,64.34
2023-05-01T05:49:27.272Z,64.81
2023-05-01T05:50:27.305Z,64.81
2023-05-01T05:51:27.321Z,65.01
2023-05-01T05:52:27.342Z,65.01
2023-05-01T05:53:27.367Z,65.77
2023-05-01T05:54:27.392Z,65.30
2023-05-01T05:55:27.414Z,65.67
2023-05-01T05:56:27.441Z,65.39
2023-05-01T05:57:27.495Z,65.77
2023-05-01T05:58:27.486Z,66.56
2023-05-01T05:59:27.509Z,65.80
2023-05-01T06:00:27.538Z,65.33
2023-05-01T06:01:27.575Z,65.52
2023-05-01T06:02:27.693Z,65.52
2023-05-01T06:03:27.755Z,65.33
2023-05-01T06:04:27.634Z,65.14
2023-05-01T06:05:27.725Z,65.61
2023-05-01T06:06:27.785Z,65.74
2023-05-01T06:07:27.707Z,65.45
2023-05-01T06:08:27.741Z,65.26
2023-05-01T06:09:27.750Z,64.78
2023-05-01T06:10:27.878Z,63.96
2023-05-01T06:11:27.806Z,63.39
2023-05-01T06:12:27.824Z,63.48
2023-05-01T06:13:27.850Z,62.78
2023-05-01T06:14:27.872Z,62.68
2023-05-01T06:15:27.896Z,62.68
2023-05-01T06:16:27.999Z,62.59
2023-05-01T06:17:27.957Z,63.10
2023-05-01T06:18:27.970Z,62.90
2023-05-01T06:19:28.002Z,62.40
2023-05-01T06:20:28.019Z,62.78
2023-05-01T06:21:28.044Z,63.26
2023-05-01T06:22:28.070Z,63.39
2023-05-01T06:23:28.108Z,63.57
2023-05-01T06:24:28.118Z,63.96
2023-05-01T06:25:28.141Z,63.96
2023-05-01T06:26:28.168Z,64.09
2023-05-01T06:27:28.200Z,63.51
2023-05-01T06:28:28.215Z,62.94
2023-05-01T06:29:28.244Z,61.69
2023-05-01T06:30:28.306Z,61.60
2023-05-01T06:31:28.348Z,60.96
2023-05-01T06:32:28.359Z,61.12
2023-05-01T06:33:28.341Z,60.93
2023-05-01T06:34:28.374Z,60.77
2023-05-01T06:35:28.386Z,60.38
2023-05-01T06:36:28.422Z,60.38
2023-05-01T06:37:28.438Z,60.86
2023-05-01T06:38:28.468Z,60.67
2023-05-01T06:39:28.492Z,59.91
2023-05-01T06:40:28.540Z,59.91
2023-05-01T06:41:28.543Z,59.33
2023-05-01T06:42:28.565Z,59.52
2023-05-01T06:43:28.593Z,59.62
2023-05-01T06:44:29.939Z,59.23
2023-05-01T06:45:28.652Z,60.13
2023-05-01T06:46:28.702Z,59.65
2023-05-01T06:47:28.757Z,59.84
2023-05-01T06:48:28.724Z,59.55
2023-05-01T06:49:28.772Z,59.45
2023-05-01T06:50:28.787Z,60.13
2023-05-01T06:51:28.800Z,59.45
2023-05-01T06:52:28.835Z,59.65
2023-05-01T06:53:28.852Z,59.84
2023-05-01T06:54:28.881Z,59.65
2023-05-01T06:55:28.907Z,59.65
2023-05-01T06:56:28.945Z,59.75
2023-05-01T06:57:28.968Z,59.94
2023-05-01T06:58:28.983Z,59.17
2023-05-01T06:59:29.012Z,59.65
2023-05-01T07:00:29.069Z,59.36
2023-05-01T07:01:29.104Z,59.36
2023-05-01T07:02:29.166Z,59.84
2023-05-01T07:03:29.185Z,59.36
2023-05-01T07:04:29.147Z,60.13
2023-05-01T07:05:29.179Z,59.27
2023-05-01T07:06:29.223Z,59.27
2023-05-01T07:07:29.228Z,59.27
2023-05-01T07:08:29.254Z,59.17
2023-05-01T07:09:29.273Z,60.32
2023-05-01T07:10:29.312Z,59.94
2023-05-01T07:11:29.340Z,59.75
2023-05-01T07:12:29.357Z,59.27
2023-05-01T07:13:29.384Z,59.55
2023-05-01T07:14:29.411Z,59.36
2023-05-01T07:15:29.434Z,59.17
2023-05-01T07:16:29.552Z,59.65
2023-05-01T07:17:29.503Z,59.55
2023-05-01T07:18:29.524Z,59.94
2023-05-01T07:19:29.596Z,60.13
2023-05-01T07:20:29.572Z,60.32
2023-05-01T07:21:29.591Z,60.13
2023-05-01T07:22:29.618Z,59.55
2023-05-01T07:23:29.651Z,59.75
2023-05-01T07:24:29.673Z,59.94
2023-05-01T07:25:29.700Z,59.75
2023-05-01T07:26:29.720Z,60.41
2023-05-01T07:27:29.750Z,61.37
2023-05-01T07:28:29.775Z,60.03
2023-05-01T07:29:29.810Z,60.13
2023-05-01T07:30:29.843Z,60.03
2023-05-01T07:31:29.879Z,59.94
2023-05-01T07:32:29.962Z,60.22
2023-05-01T07:33:29.903Z,60.03
2023-05-01T07:34:29.931Z,59.97
2023-05-01T07:35:29.978Z,59.97
2023-05-01T07:36:29.986Z,59.97
2023-05-01T07:37:30.011Z,60.06
2023-05-01T07:38:30.040Z,60.25
2023-05-01T07:39:30.061Z,59.97
2023-05-01T07:40:30.084Z,60.28
2023-05-01T07:41:30.113Z,60.09
2023-05-01T07:42:30.159Z,60.38
2023-05-01T07:43:30.170Z,59.42
2023-05-01T07:44:30.188Z,59.42
2023-05-01T07:45:30.214Z,59.04
2023-05-01T07:46:30.404Z,59.36
2023-05-01T07:47:30.296Z,59.45
2023-05-01T07:48:30.305Z,59.36
2023-05-01T07:49:30.320Z,59.16
2023-05-01T07:50:30.348Z,58.11
2023-05-01T07:51:30.383Z,58.30
2023-05-01T07:52:30.402Z,58.87
2023-05-01T07:53:30.423Z,58.11
2023-05-01T07:54:30.450Z,57.63
2023-05-01T07:55:30.487Z,58.20
2023-05-01T07:56:30.507Z,57.85
2023-05-01T07:57:30.534Z,57.56
2023-05-01T07:58:30.592Z,58.33
2023-05-01T07:59:30.600Z,58.42
2023-05-01T08:00:30.727Z,57.65
2023-05-01T08:01:30.650Z,58.04
2023-05-01T08:02:30.826Z,57.18
2023-05-01T08:03:30.895Z,56.73
2023-05-01T08:04:30.761Z,57.01
2023-05-01T08:05:30.751Z,56.92
2023-05-01T08:06:30.818Z,57.50
2023-05-01T08:07:30.802Z,57.59
2023-05-01T08:08:30.830Z,58.07
2023-05-01T08:09:30.868Z,58.00
2023-05-01T08:10:30.888Z,57.62
2023-05-01T08:11:30.912Z,56.66
2023-05-01T08:12:30.946Z,56.66
2023-05-01T08:13:30.979Z,56.37
2023-05-01T08:14:30.998Z,56.18
2023-05-01T08:15:31.022Z,55.89
2023-05-01T08:16:31.099Z,55.79
2023-05-01T08:17:31.140Z,56.27
2023-05-01T08:18:31.117Z,56.18
2023-05-01T08:19:31.134Z,56.27
2023-05-01T08:20:31.159Z,55.89
2023-05-01T08:21:31.190Z,55.32
2023-05-01T08:22:31.262Z,55.10
2023-05-01T08:23:31.254Z,56.05
2023-05-01T08:24:31.281Z,56.66
2023-05-01T08:25:31.306Z,57.23
2023-05-01T08:26:31.330Z,56.37
2023-05-01T08:27:31.366Z,56.46
2023-05-01T08:28:31.391Z,57.04
2023-05-01T08:29:31.421Z,57.62
2023-05-01T08:30:31.439Z,57.52
2023-05-01T08:31:31.508Z,57.36
2023-05-01T08:32:31.596Z,56.49
2023-05-01T08:33:31.524Z,56.85
2023-05-01T08:34:31.723Z,56.40
2023-05-01T08:35:31.576Z,56.98
2023-05-01T08:36:31.610Z,57.26
2023-05-01T08:37:31.634Z,56.49
2023-05-01T08:38:31.669Z,56.01
2023-05-01T08:39:31.694Z,56.88
2023-05-01T08:40:31.723Z,57.07
2023-05-01T08:41:31.744Z,56.88
2023-05-01T08:42:32.443Z,57.00
2023-05-01T08:43:31.801Z,56.68
2023-05-01T08:44:31.829Z,55.44
2023-05-01T08:45:31.869Z,55.44
2023-05-01T08:46:31.943Z,55.82
2023-05-01T08:47:31.979Z,55.89
2023-05-01T08:48:31.939Z,56.11
2023-05-01T08:49:31.966Z,56.95
2023-05-01T08:50:32.009Z,57.33
2023-05-01T08:51:32.026Z,56.88
2023-05-01T08:52:32.060Z,56.66
2023-05-01T08:53:32.075Z,56.98
2023-05-01T08:54:32.099Z,57.07
2023-05-01T08:55:32.140Z,56.98
2023-05-01T08:56:32.155Z,56.30
2023-05-01T08:57:32.195Z,56.49
2023-05-01T08:58:32.207Z,56.49
2023-05-01T08:59:32.241Z,56.30
2023-05-01T09:00:32.271Z,56.30
2023-05-01T09:01:32.350Z,56.01
2023-05-01T09:02:32.344Z,55.82
2023-05-01T09:03:32.442Z,55.82
2023-05-01T09:04:32.385Z,55.82
2023-05-01T09:05:32.401Z,56.68
2023-05-01T09:06:32.612Z,56.49
2023-05-01T09:07:32.460Z,56.30
2023-05-01T09:08:32.483Z,56.88
2023-05-01T09:09:32.515Z,56.49
2023-05-01T09:10:33.074Z,55.91
2023-05-01T09:11:32.569Z,56.68
2023-05-01T09:12:32.592Z,56.88
2023-05-01T09:13:32.646Z,56.59
2023-05-01T09:14:32.658Z,56.49
2023-05-01T09:15:32.679Z,56.49
2023-05-01T09:16:32.937Z,56.01
2023-05-01T09:17:32.813Z,56.21
2023-05-01T09:18:32.760Z,56.04
2023-05-01T09:19:32.795Z,56.14
2023-05-01T09:20:32.830Z,56.33
2023-05-01T09:21:32.922Z,56.65
2023-05-01T09:22:32.882Z,56.16
2023-05-01T09:23:32.904Z,55.30
2023-05-01T09:24:32.933Z,54.24
2023-05-01T09:25:32.960Z,53.96
2023-05-01T09:26:32.990Z,54.27
2023-05-01T09:27:33.013Z,54.08
2023-05-01T09:28:33.050Z,53.88
2023-05-01T09:29:33.075Z,53.69
2023-05-01T09:30:33.132Z,53.69
2023-05-01T09:31:33.136Z,53.78
2023-05-01T09:32:33.204Z,54.08
2023-05-01T09:33:33.186Z,54.27
2023-05-01T09:34:33.244Z,54.85
2023-05-01T09:35:33.241Z,55.04
2023-05-01T09:36:33.272Z,54.17
2023-05-01T09:37:33.302Z,53.40
2023-05-01T09:38:33.330Z,53.40
2023-05-01T09:39:33.362Z,54.17
2023-05-01T09:40:33.398Z,55.07
2023-05-01T09:41:33.441Z,54.87
2023-05-01T09:42:33.456Z,54.39
2023-05-01T09:43:33.481Z,54.20
2023-05-01T09:44:33.504Z,54.78
2023-05-01T09:45:33.539Z,54.58
2023-05-01T09:46:33.620Z,54.13
2023-05-01T09:47:33.740Z,54.22
2023-05-01T09:48:35.319Z,54.32
2023-05-01T09:49:33.649Z,54.13
2023-05-01T09:50:33.682Z,53.36
2023-05-01T09:51:33.705Z,53.36
2023-05-01T09:52:33.753Z,53.94
2023-05-01T09:53:33.767Z,54.22
2023-05-01T09:54:33.794Z,54.32
2023-05-01T09:55:33.819Z,52.78
2023-05-01T09:56:33.910Z,53.23
2023-05-01T09:57:33.878Z,53.23
2023-05-01T09:58:33.924Z,53.23
2023-05-01T09:59:33.940Z,53.14
2023-05-01T10:00:33.976Z,53.53
2023-05-01T10:01:34.022Z,53.62
2023-05-01T10:02:34.149Z,53.72
2023-05-01T10:03:34.150Z,54.00
2023-05-01T10:04:34.085Z,54.30
2023-05-01T10:05:34.110Z,54.58
2023-05-01T10:06:34.225Z,55.04
2023-05-01T10:07:34.170Z,55.45
2023-05-01T10:08:34.212Z,54.75
2023-05-01T10:09:34.234Z,54.78
2023-05-01T10:10:34.260Z,54.87
2023-05-01T10:11:34.298Z,54.49
2023-05-01T10:12:34.314Z,54.00
2023-05-01T10:13:34.342Z,53.91
2023-05-01T10:14:34.368Z,53.81
2023-05-01T10:15:34.402Z,53.72
2023-05-01T10:16:34.439Z,53.91
2023-05-01T10:17:34.470Z,53.81
2023-05-01T10:18:34.478Z,53.72
2023-05-01T10:19:34.524Z,53.53
2023-05-01T10:20:34.542Z,53.43
2023-05-01T10:21:34.568Z,53.23
2023-05-01T10:22:34.600Z,53.72
2023-05-01T10:23:34.630Z,54.00
2023-05-01T10:24:34.654Z,53.33
2023-05-01T10:25:34.682Z,52.95
2023-05-01T10:26:34.735Z,52.95
2023-05-01T10:27:34.741Z,53.14
2023-05-01T10:28:34.771Z,53.21
2023-05-01T10:29:34.796Z,53.78
2023-05-01T10:30:34.827Z,53.78
2023-05-01T10:31:34.938Z,53.31
2023-05-01T10:32:34.906Z,53.59
2023-05-01T10:33:34.903Z,54.08
2023-05-01T10:34:34.940Z,53.31
2023-05-01T10:35:34.963Z,53.31
2023-05-01T10:36:34.990Z,53.14
2023-05-01T10:37:35.055Z,53.33
2023-05-01T10:38:35.065Z,52.18
2023-05-01T10:39:35.084Z,51.50
2023-05-01T10:40:35.123Z,51.70
2023-05-01T10:41:35.133Z,51.31
2023-05-01T10:42:35.310Z,52.56
2023-05-01T10:43:35.200Z,52.56
2023-05-01T10:44:35.280Z,51.89
2023-05-01T10:45:36.004Z,51.89
2023-05-01T10:46:35.284Z,51.89
2023-05-01T10:47:35.356Z,51.98
2023-05-01T10:48:35.324Z,51.98
2023-05-01T10:49:35.355Z,52.95
2023-05-01T10:50:35.426Z,52.95
2023-05-01T10:51:35.411Z,52.37
2023-05-01T10:52:35.442Z,52.27
2023-05-01T10:53:35.488Z,52.18
2023-05-01T10:54:35.495Z,51.41
2023-05-01T10:55:35.524Z,51.89
2023-05-01T10:56:35.559Z,52.18
2023-05-01T10:57:35.582Z,52.11
2023-05-01T10:58:35.609Z,52.11
2023-05-01T10:59:35.648Z,51.05
2023-05-01T11:00:35.664Z,49.79
2023-05-01T11:01:35.729Z,50.76
2023-05-01T11:02:35.764Z,51.14
2023-05-01T11:03:35.784Z,50.95
2023-05-01T11:04:35.783Z,50.27
2023-05-01T11:05:38.610Z,50.18
2023-05-01T11:06:35.910Z,50.09
2023-05-01T11:07:35.871Z,50.66
2023-05-01T11:08:35.908Z,50.18
2023-05-01T11:09:35.922Z,50.76
2023-05-01T11:10:35.970Z,50.57
2023-05-01T11:11:35.984Z,51.17
2023-05-01T11:12:36.010Z,51.26
2023-05-01T11:13:36.036Z,50.21
2023-05-01T11:14:36.065Z,49.43
2023-05-01T11:15:36.102Z,49.91
2023-05-01T11:16:36.161Z,49.53
2023-05-01T11:17:36.178Z,49.53
2023-05-01T11:18:36.178Z,48.86
2023-05-01T11:19:36.217Z,48.76
2023-05-01T11:20:36.240Z,49.34
2023-05-01T11:21:36.269Z,49.91
2023-05-01T11:22:36.300Z,50.49
2023-05-01T11:23:36.331Z,50.49
2023-05-01T11:24:36.357Z,49.53
2023-05-01T11:25:36.383Z,50.01
2023-05-01T11:26:36.414Z,49.84
2023-05-01T11:27:36.446Z,49.75
2023-05-01T11:28:36.473Z,49.27
2023-05-01T11:29:36.500Z,49.46
2023-05-01T11:30:36.547Z,49.84
2023-05-01T11:31:36.592Z,49.43
2023-05-01T11:32:36.641Z,49.34
2023-05-01T11:33:36.626Z,48.76
2023-05-01T11:34:36.648Z,48.95
2023-05-01T11:35:36.678Z,49.24
2023-05-01T11:36:36.707Z,49.24
2023-05-01T11:37:36.734Z,49.91
2023-05-01T11:38:36.771Z,50.81
2023-05-01T11:39:36.802Z,51.58
2023-05-01T11:40:36.823Z,50.13
2023-05-01T11:41:36.853Z,50.93
2023-05-01T11:42:36.893Z,49.94
2023-05-01T11:43:36.912Z,50.06
2023-05-01T11:44:36.935Z,50.06
2023-05-01T11:45:37.333Z,49.48
2023-05-01T11:46:37.044Z,49.32
2023-05-01T11:47:37.056Z,49.41
2023-05-01T11:48:37.057Z,48.47
2023-05-01T11:49:37.088Z,47.31
2023-05-01T11:50:37.158Z,47.02
2023-05-01T11:51:37.148Z,47.43
2023-05-01T11:52:37.177Z,47.33
2023-05-01T11:53:37.201Z,46.85
2023-05-01T11:54:37.256Z,44.53
2023-05-01T11:55:37.271Z,44.56
2023-05-01T11:56:37.297Z,44.65
2023-05-01T11:57:37.330Z,43.20
2023-05-01T11:58:37.359Z,42.43
2023-05-01T11:59:37.393Z,42.62
2023-05-01T12:00:37.432Z,43.68
2023-05-01T12:01:37.454Z,44.36
2023-05-01T12:02:37.556Z,44.57
2023-05-01T12:03:37.592Z,44.67
2023-05-01T12:04:37.583Z,44.09
2023-05-01T12:05:37.628Z,42.91
2023-05-01T12:06:37.630Z,42.91
2023-05-01T12:07:37.631Z,43.59
2023-05-01T12:08:37.669Z,43.01
2023-05-01T12:09:37.698Z,42.82
2023-05-01T12:10:37.726Z,41.44
2023-05-01T12:11:37.750Z,41.93
2023-05-01T12:12:37.793Z,42.10
2023-05-01T12:13:37.819Z,41.61
2023-05-01T12:14:37.842Z,42.39
2023-05-01T12:15:37.880Z,43.45
2023-05-01T12:16:38.035Z,44.73
2023-05-01T12:17:37.960Z,44.63
2023-05-01T12:18:37.968Z,44.05
2023-05-01T12:19:37.999Z,44.63
2023-05-01T12:20:38.034Z,44.63
2023-05-01T12:21:38.060Z,44.24
2023-05-01T12:22:38.092Z,44.05
2023-05-01T12:23:38.122Z,44.34
2023-05-01T12:24:38.153Z,44.73
2023-05-01T12:25:38.181Z,44.94
2023-05-01T12:26:38.215Z,44.75
2023-05-01T12:27:38.241Z,44.46
2023-05-01T12:28:38.333Z,43.85
2023-05-01T12:29:38.311Z,43.78
2023-05-01T12:30:38.339Z,43.20
2023-05-01T12:31:38.398Z,41.93
2023-05-01T12:32:38.436Z,41.83
2023-05-01T12:33:38.428Z,41.83
2023-05-01T12:34:38.494Z,42.50
2023-05-01T12:35:38.491Z,42.31
2023-05-01T12:36:38.559Z,42.68
2023-05-01T12:37:38.570Z,42.48
2023-05-01T12:38:38.586Z,42.77
2023-05-01T12:39:38.625Z,42.85
2023-05-01T12:40:38.649Z,43.14
2023-05-01T12:41:38.673Z,43.14
2023-05-01T12:42:38.704Z,43.43
2023-05-01T12:43:38.734Z,44.20
2023-05-01T12:44:38.763Z,44.10
2023-05-01T12:45:38.804Z,44.29
2023-05-01T12:46:38.843Z,44.51
2023-05-01T12:47:38.899Z,44.42
2023-05-01T12:48:38.889Z,43.64
2023-05-01T12:49:38.930Z,42.97
2023-05-01T12:50:38.952Z,42.70
2023-05-01T12:51:38.993Z,43.57
2023-05-01T12:52:39.013Z,43.37